• Join FlightAware (Why Join?)
  • Login
  • US Flag 
Gobble Gobble! 
12:35AM EST


 

Airport Tracker/Info


-or-


 

Live Flight TrackerFlight Track Log ✈ N45NS ✈ 02-Sep-2014 ✈ KBJJ - KPHL

Flight Track Log - Related Links

Times and Time Zones

All times are in EDT time to prevent confusion due to time zone crossing. See the N45NS flight status page for this flight to view local times or setup timezone preferences in your user account.

Time Position Orientation Groundspeed Altitude Reporting Facility
EDT Latitude Longitude Course Direction KTS MPH feet Rate Location/Type
09:56AM 40.6829 -80.8352 107° East  Level FlightAware Approximate
09:57AM 40.6613 -80.7184 98° East  Level FlightAware Approximate
09:58AM 40.6458 -80.5998 108° East  Level FlightAware Approximate
09:59AM 40.6231 -80.4833 101° East  Level FlightAware Approximate
10:00AM 40.6049 -80.3652 101° East  Level FlightAware Approximate
10:01AM 40.5830 -80.2484 106° East  Level FlightAware Approximate
10:02AM 40.5573 -80.1328 106° East  Level FlightAware Approximate
10:03AM 40.5350 -80.0162 103° East  Level FlightAware Approximate
10:04AM 40.5140 -79.8991 103° East  Level FlightAware Approximate
10:05AM 40.4929 -79.7821 103° East  Level FlightAware Approximate
10:06AM 40.4716 -79.6651 103° East  Level FlightAware Approximate
10:07AM 40.4503 -79.5483 103° East  Level FlightAware Approximate
10:08AM 40.4288 -79.4315 104° East  Level FlightAware Approximate
10:09AM 40.4072 -79.3148 104° East  Level FlightAware Approximate
10:10AM 40.3854 -79.1981 104° East  Level FlightAware Approximate
10:11AM 40.3636 -79.0816 104° East  Level FlightAware Approximate
10:12AM 40.3417 -78.9651 104° East  Level FlightAware Approximate
10:13AM 40.3196 -78.8487 104° East  Level FlightAware Approximate
10:14AM 40.3133 -78.7293 92° East  Level FlightAware Approximate
10:15AM 40.3092 -78.6095 93° East  Level FlightAware Approximate
10:16AM 40.3050 -78.4897 93° East  Level FlightAware Approximate
10:17AM 40.3007 -78.3699 93° East  Level FlightAware Approximate
10:18AM 40.3000 -78.2501 90° East  Level FlightAware Approximate
10:19AM 40.3000 -78.1302 90° East  Level FlightAware Approximate
10:20AM 40.3000 -78.0103 90° East  Level FlightAware Approximate
10:21AM 40.3000 -77.8904 90° East  Level FlightAware Approximate
10:22AM 40.3001 -77.7705 90° East  Level FlightAware Approximate
10:23AM 40.3001 -77.6506 90° East  Level FlightAware Approximate
10:24AM 40.3001 -77.5307 90° East  Level FlightAware Approximate
10:25AM 40.3000 -77.4108 90° East  Level FlightAware Approximate
10:26AM 40.3000 -77.2909 90° East  Level FlightAware Approximate
10:27AM 40.3000 -77.1710 90° East  Level FlightAware Approximate
10:28AM 40.2957 -77.0521 111° Southeast  Level FlightAware Approximate
10:29AM 40.2622 -76.9406 111° Southeast  Level FlightAware Approximate
10:30AM 40.2438 -76.8251 108° East  Level FlightAware Approximate
10:31AM 40.2167 -76.7110 90° East  Level FlightAware Approximate
10:32AM 40.1876 -76.5982 110° East  Level FlightAware Approximate
10:33AM 40.1664 -76.4831 143° Southeast  Level FlightAware Approximate
10:34AM 40.1370 -76.3757 101° East  Level FlightAware Approximate
10:35AM 40.1111 -76.2612 108° East  Level FlightAware Approximate
10:36AM 40.1000 -76.1439 90° East  Level FlightAware Approximate
10:37AM 40.0985 -76.0246 102° East  Level FlightAware Approximate
10:38AM 40.0833 -75.9072 90° East  Level FlightAware Approximate
10:39AM 40.0833 -75.7877 90° East  Level FlightAware Approximate
10:40AM 40.0561 -75.6788 123° Southeast  Level FlightAware Approximate
10:41AM 40.0090 -75.5765 119° Southeast  Level FlightAware Approximate
10:42AM 39.9672 -75.4731 128° Southeast  Level FlightAware Approximate
10:43AM 39.9188 -75.3730 113° Southeast  Level FlightAware Approximate
10:44AM 39.8795 -75.2655 118° Southeast  Level FlightAware Approximate
10:45AM 39.8667 -75.2333 118° Southeast  Level FlightAware Approximate
10:46AM 39.8722 -75.2409 118° Southeast  Level Estimated
10:47AM 39.8722 -75.2409 118° Southeast  Level Estimated
10:48AM 39.8722 -75.2409 118° Southeast  Level Estimated
10:49AM 39.8722 -75.2409 118° Southeast  Level Estimated
10:50AM 39.8722 -75.2409 118° Southeast  Level Estimated
10:51AM 39.8722 -75.2409 118° Southeast  Level Estimated
10:52AM 39.8722 -75.2409 118° Southeast  Level Estimated
10:53AM 39.8722 -75.2409 118° Southeast  Level Estimated
10:54AM 39.8722 -75.2409 118° Southeast  Level Estimated
10:55AM 39.8722 -75.2409 118° Southeast  Level Estimated
10:56AM 39.8722 -75.2409 118° Southeast  Level Estimated
10:57AM 39.8722 -75.2409 118° Southeast  Level Estimated
10:58AM 39.8722 -75.2409 118° Southeast  Level Estimated
10:59AM 39.8722 -75.2409 118° Southeast  Level Estimated
11:00AM 39.8722 -75.2409 118° Southeast  Level Estimated